AirNav  
 
 1273 users online  

13XA Flying 5B Ranch Airport
Iredell, Texas, USA

GOING TO IREDELL?


FAA INFORMATION EFFECTIVE 22 APRIL 2021

Location

FAA Identifier: 13XA
Lat/Long: 31-57-07.6300N 097-50-08.8000W
31-57.127167N 097-50.146667W
31.9521194,-97.8357778
(estimated)
Elevation: 1010 ft. / 308 m (estimated)
From city: 3 miles E of IREDELL, TX
Time zone: UTC -5 (UTC -6 during Standard Time)
Zip code: 76649

Airport Operations

Airport use: Private use. Permission required prior to landing
Activation date: 08/2010
Control tower: no
ARTCC: FORT WORTH CENTER
FSS: FORT WORTH FLIGHT SERVICE STATION
Attendance: UNATNDD
Wind indicator: yes
Segmented circle: no

Nearby radio navigation aids

VOR radial/distance  VOR name  Freq  Var
ACTr292/33.7WACO VORTAC115.3009E

Airport Services

Runway Information

Runway 15/33

Dimensions: 2500 x 50 ft. / 762 x 15 m
Surface: turf
RUNWAY 15  RUNWAY 33
Traffic pattern: rightleft

Airport Ownership and Management from official FAA records

Ownership: Privately-owned
Owner: J. BAR B RANCH LLC
113 AVIATOR DR
FORT WORTH, TX 76179
Phone 817-239-3037
Manager: JOHN BARBER
113 AVIATOR DR
FORT WORTH, TX 76179
Phone 817-239-3037

Airport Operational Statistics

Aircraft based on the field: 1
Single engine airplanes: 1
    

Additional Remarks

FOR CD CTC FORT WORTH ARTCC AT 817-858-7584.

Instrument Procedures

There are no published instrument procedures at 13XA.

Some nearby airports with instrument procedures:

KMNZ - Hamilton Municipal Airport (23 nm SW)
KSEP - Stephenville Clark Regional Airport (23 nm NW)
KGDJ - Granbury Regional Airport (30 nm N)
KCPT - Cleburne Regional Airport (32 nm NE)
KACT - Waco Regional Airport (37 nm SE)
 
Loc | Ops | Rwys | IFR | FBO | Links
Com | Nav | Svcs | Stats | Notes

City of Fort Worth
 
Aerial photo
No photo
 
Sectional chart

 
Airport distance calculator
Flying to Flying 5B Ranch Airport? Find the distance to fly.

From to 13XA

Sunrise and sunset
Times for 05-May-2021
 Local
(UTC-5)
 Zulu
(UTC)
Morning civil twilight06:1711:17
Sunrise06:4311:43
Sunset20:1301:13
Evening civil twilight20:4001:40

Current date and time
Zulu (UTC)  05-May-2021 21:33:26
Local (UTC-5)  05-May-2021 16:33:26
 
METAR
KSEP 
23nm NW 
052115Z AUTO 13006KT 10SM CLR 25/04 A3013 RMK AO2 T02460043
KMNZ 
23nm SW 
052115Z AUTO 10004KT 7SM CLR 27/05 A3012 RMK AO2 T02660053
KGDJ 
30nm N 
AWOS-3 118.925 817-573-7514
052115Z AUTO 06006KT 10SM CLR 25/03 A3012 RMK AO2 T02460030
KCPT 
32nm NE 
052115Z AUTO 13008KT 10SM CLR 24/06 A3011 RMK A01
KGOP 
32nm S 
052115Z AUTO 06006KT 10SM CLR 25/05 A3012 RMK AO2
KACT 
37nm SE 
052051Z 04007KT 10SM CLR 26/07 A3011 RMK AO2 SLP190 T02610067 56022
KINJ 
38nm E 
052115Z AUTO 08004KT 10SM CLR 24/08 A3011 RMK AO2 T02370078
KMKN 
39nm W 
052115Z AUTO 13003KT 10SM CLR 24/09 A3012 RMK AO2 T02350086
KPWG 
39nm SE 
052056Z AUTO 02007KT 10SM CLR 25/07 A3011 RMK AO2 SLP192 T02500072 56022
KCNW 
44nm SE 
052055Z 05008KT 10SM SKC 25/04 A3012
TAF
KACT 
37nm SE 
051720Z 0518/0618 02010KT P6SM SKC FM060000 07004KT P6SM SKC FM061500 06007KT P6SM SCT250
NOTAMs
Click for the latest NOTAMs
NOTAMs are issued by the DoD/FAA and will open in a separate window not controlled by AirNav.

 

 
 

Would you like to see your business listed on this page?

 If your business provides an interesting product or service to pilots, flight crews, aircraft, or users of the Flying 5B Ranch Airport, you should consider listing it here.  To start the listing process, click on the button below
 
Add a business
 

Other Pages about Flying 5B Ranch Airport

Update a link
 
Copyright © AirNav, LLC. All rights reserved. Privacy Policy  Contact